Tim S. Dool — VGPY — position and weather

sailwx.info

Track history (hours):
 
Tides and Currents Weather Stations Pressure Air Temp Water Temp Dewpoint Dewpoint Depression Visibility Wind Speed Wind Dir Waves Ship Positions

Tim S. Dool

Last reported at 2015-Jun-28 19:30 UTC. Time now 2015-Jun-30 03:29 UTC.
Position N 46°41' W 071°52'.

Length 223 m; draft 7.3 m.

Type: Cargo ship. MMSI: 316001696.

Date/timePositionNaut miles runAvg speedWind from/ knotsBaromVisibWave heightAir tempDewpointWater temp
2015-Jun-28 19:30N 46°41' W 071°52'1313.8
2015-Jun-28 18:34N 46°34' W 072°08'1312.7
2015-Jun-28 17:33N 46°25' W 072°22'1211.6
2015-Jun-28 16:33N 46°18' W 072°35'1212.0
2015-Jun-28 15:33N 46°12' W 072°50'5111.8
2015-Jun-28 11:16N 45°30' W 073°31'1 1.1
2015-Jun-28 10:31N 45°29' W 073°31'5 4.1
2015-Jun-28 09:24N 45°25' W 073°31'2 2.6
2015-Jun-28 08:33N 45°24' W 073°34'3 3.1
2015-Jun-28 07:33N 45°24' W 073°38'7 7.2
2015-Jun-28 06:32N 45°23' W 073°49'6 6.2
2015-Jun-28 05:33N 45°19' W 073°55'1 1.1
2015-Jun-28 04:34N 45°18' W 073°56'5 3.9
2015-Jun-28 03:22N 45°14' W 073°60'116 7.8
2015-Jun-27 12:25N 44°12' W 076°17'159 6.5
2015-Jun-26 12:00N 42°36' W 079°12'2910.9 040 / 71013.010.8 0.519.0
2015-Jun-26 09:19N 42°30' W 079°51'148 5.4
2015-Jun-25 06:00N 44°12' W 082°18'10914.2 190 / 41015.010.8 14.0
2015-Jun-24 22:19N 45°45' W 083°38'2411.1
2015-Jun-24 20:11N 46°04' W 083°59'43 6.1
2015-Jun-24 13:09N 46°35' W 084°42'812.7
2015-Jun-24 12:33N 46°41' W 084°49'1312.2
2015-Jun-24 11:27N 46°50' W 085°03'1112.7
2015-Jun-24 10:33N 46°54' W 085°18'27912.4
2015-Jun-23 12:00N 46°42' W 092°06'3 0.2 300 / 161011.010.8 0.518.0
2015-Jun-22 19:27N 46°45' W 092°08'0 0.0
2015-Jun-22 18:33N 46°45' W 092°08'0 0.1
2015-Jun-22 17:33N 46°45' W 092°08'0 0.0
2015-Jun-22 16:33N 46°45' W 092°08'0 0.0
2015-Jun-22 15:33N 46°45' W 092°08'0 0.0
2015-Jun-22 14:33N 46°45' W 092°08'0 0.0
2015-Jun-22 13:33N 46°45' W 092°08'26 1.0
2015-Jun-21 11:33N 46°58' W 091°34'1313.3
2015-Jun-21 10:33N 46°52' W 091°51'1111.4
2015-Jun-21 09:34N 46°46' W 092°06'1 1.4
2015-Jun-21 08:34N 46°45' W 092°06'0 0.0
2015-Jun-21 07:33N 46°45' W 092°06'0 0.0
2015-Jun-21 06:34N 46°45' W 092°06'0 0.0
2015-Jun-21 05:33N 46°45' W 092°06'0 0.0
2015-Jun-21 04:33N 46°45' W 092°06'0 0.0
2015-Jun-21 03:34N 46°45' W 092°06'0 0.0
2015-Jun-21 02:33N 46°45' W 092°06'0 0.0
2015-Jun-21 01:33N 46°45' W 092°06'0 0.0
2015-Jun-21 00:33N 46°45' W 092°06'0 0.0
2015-Jun-20 23:33N 46°45' W 092°06'0 0.0
2015-Jun-20 22:33N 46°45' W 092°06'0 0.0
2015-Jun-20 21:33N 46°45' W 092°06'0 0.0
2015-Jun-20 20:33N 46°45' W 092°06'0 0.0
2015-Jun-20 19:33N 46°45' W 092°06'0 0.0
2015-Jun-20 18:33N 46°45' W 092°06'0 0.0
2015-Jun-20 17:33N 46°45' W 092°06'0 0.0
2015-Jun-20 16:33N 46°45' W 092°06'0 0.0
2015-Jun-20 15:33N 46°45' W 092°06'0 0.0
2015-Jun-20 14:33N 46°45' W 092°06'0 0.0
2015-Jun-20 13:34N 46°45' W 092°06'0 0.0
2015-Jun-20 12:33N 46°45' W 092°06'0 0.0
2015-Jun-20 11:33N 46°45' W 092°06'0 0.0
2015-Jun-20 10:33N 46°45' W 092°06'0 0.0
2015-Jun-20 09:33N 46°45' W 092°06'0 0.0
2015-Jun-20 08:33N 46°45' W 092°06'0 0.0
2015-Jun-20 07:33N 46°45' W 092°06'0 0.0
2015-Jun-20 06:33N 46°45' W 092°06'0 0.0
2015-Jun-20 05:33N 46°45' W 092°06'0 0.0
2015-Jun-20 04:34N 46°45' W 092°06'0 0.0
2015-Jun-20 03:31N 46°45' W 092°06'0 0.0
2015-Jun-20 02:34N 46°45' W 092°06'0 0.0
2015-Jun-20 01:34N 46°45' W 092°06'0 0.0
2015-Jun-20 00:34N 46°45' W 092°06'0 0.0
2015-Jun-19 23:15N 46°45' W 092°06'0 0.0
2015-Jun-19 22:33N 46°45' W 092°06'0 0.0
2015-Jun-19 21:33N 46°45' W 092°06'0 0.0
2015-Jun-19 20:33N 46°45' W 092°06'0 0.0
2015-Jun-19 19:33N 46°45' W 092°06'0 0.0
2015-Jun-19 18:33N 46°45' W 092°06'0 0.0
2015-Jun-19 17:33N 46°45' W 092°06'0 0.0
2015-Jun-19 16:33N 46°45' W 092°06'0 0.0
2015-Jun-19 15:33N 46°45' W 092°06'0 0.0
2015-Jun-19 14:33N 46°45' W 092°06'0 0.0
2015-Jun-19 13:33N 46°45' W 092°06'0 0.0
2015-Jun-19 12:33N 46°45' W 092°06'0 0.0
2015-Jun-19 11:33N 46°45' W 092°06'0 0.0
2015-Jun-19 10:33N 46°45' W 092°06'0 0.0
2015-Jun-19 09:33N 46°45' W 092°06'0 0.0
2015-Jun-19 08:33N 46°45' W 092°06'0 0.0
2015-Jun-19 07:33N 46°45' W 092°06'0 0.0
2015-Jun-19 06:33N 46°45' W 092°06'0 0.0
2015-Jun-19 05:33N 46°45' W 092°06'0 0.0
2015-Jun-19 04:33N 46°45' W 092°06'0 0.0
2015-Jun-19 03:32N 46°45' W 092°06'0 0.0
2015-Jun-19 02:33N 46°45' W 092°06'0 0.0
2015-Jun-19 01:33N 46°45' W 092°06'0 0.0
2015-Jun-19 00:33N 46°45' W 092°06'0 0.0
2015-Jun-18 23:33N 46°45' W 092°06'0 0.0
2015-Jun-18 22:33N 46°45' W 092°06'0 0.0
2015-Jun-18 21:33N 46°45' W 092°06'0 0.0
2015-Jun-18 20:33N 46°45' W 092°06'0 0.0
2015-Jun-18 19:33N 46°45' W 092°06'  
Track history (hours):
 
Tides and Currents Weather Stations Pressure Air Temp Water Temp Dewpoint Dewpoint Depression Visibility Wind Speed Wind Dir Waves Ship Positions

Tim S. Dool

Last reported at 2015-Jun-28 19:30 UTC. Time now 2015-Jun-30 03:29 UTC.
Position N 46°41' W 071°52'.

Length 223 m; draft 7.3 m.

Type: Cargo ship. MMSI: 316001696.

Date/timePositionNaut miles runAvg speedWind from/ knotsBaromVisibWave heightAir tempDewpointWater temp
2015-Jun-28 19:30N 46°41' W 071°52'1313.8
2015-Jun-28 18:34N 46°34' W 072°08'1312.7
2015-Jun-28 17:33N 46°25' W 072°22'1211.6
2015-Jun-28 16:33N 46°18' W 072°35'1212.0
2015-Jun-28 15:33N 46°12' W 072°50'5111.8
2015-Jun-28 11:16N 45°30' W 073°31'1 1.1
2015-Jun-28 10:31N 45°29' W 073°31'5 4.1
2015-Jun-28 09:24N 45°25' W 073°31'2 2.6
2015-Jun-28 08:33N 45°24' W 073°34'3 3.1
2015-Jun-28 07:33N 45°24' W 073°38'7 7.2
2015-Jun-28 06:32N 45°23' W 073°49'6 6.2
2015-Jun-28 05:33N 45°19' W 073°55'1 1.1
2015-Jun-28 04:34N 45°18' W 073°56'5 3.9
2015-Jun-28 03:22N 45°14' W 073°60'116 7.8
2015-Jun-27 12:25N 44°12' W 076°17'159 6.5
2015-Jun-26 12:00N 42°36' W 079°12'2910.9 040 / 71013.010.8 0.519.0
2015-Jun-26 09:19N 42°30' W 079°51'148 5.4
2015-Jun-25 06:00N 44°12' W 082°18'10914.2 190 / 41015.010.8 14.0
2015-Jun-24 22:19N 45°45' W 083°38'2411.1
2015-Jun-24 20:11N 46°04' W 083°59'43 6.1
2015-Jun-24 13:09N 46°35' W 084°42'812.7
2015-Jun-24 12:33N 46°41' W 084°49'1312.2
2015-Jun-24 11:27N 46°50' W 085°03'1112.7
2015-Jun-24 10:33N 46°54' W 085°18'27912.4
2015-Jun-23 12:00N 46°42' W 092°06'3 0.2 300 / 161011.010.8 0.518.0
2015-Jun-22 19:27N 46°45' W 092°08'0 0.0
2015-Jun-22 18:33N 46°45' W 092°08'0 0.1
2015-Jun-22 17:33N 46°45' W 092°08'0 0.0
2015-Jun-22 16:33N 46°45' W 092°08'0 0.0
2015-Jun-22 15:33N 46°45' W 092°08'0 0.0
2015-Jun-22 14:33N 46°45' W 092°08'0 0.0
2015-Jun-22 13:33N 46°45' W 092°08'26 1.0
2015-Jun-21 11:33N 46°58' W 091°34'1313.3
2015-Jun-21 10:33N 46°52' W 091°51'1111.4
2015-Jun-21 09:34N 46°46' W 092°06'1 1.4
2015-Jun-21 08:34N 46°45' W 092°06'0 0.0
2015-Jun-21 07:33N 46°45' W 092°06'0 0.0
2015-Jun-21 06:34N 46°45' W 092°06'0 0.0
2015-Jun-21 05:33N 46°45' W 092°06'0 0.0
2015-Jun-21 04:33N 46°45' W 092°06'0 0.0
2015-Jun-21 03:34N 46°45' W 092°06'0 0.0
2015-Jun-21 02:33N 46°45' W 092°06'0 0.0
2015-Jun-21 01:33N 46°45' W 092°06'0 0.0
2015-Jun-21 00:33N 46°45' W 092°06'0 0.0
2015-Jun-20 23:33N 46°45' W 092°06'0 0.0
2015-Jun-20 22:33N 46°45' W 092°06'0 0.0
2015-Jun-20 21:33N 46°45' W 092°06'0 0.0
2015-Jun-20 20:33N 46°45' W 092°06'0 0.0
2015-Jun-20 19:33N 46°45' W 092°06'0 0.0
2015-Jun-20 18:33N 46°45' W 092°06'0 0.0
2015-Jun-20 17:33N 46°45' W 092°06'0 0.0
2015-Jun-20 16:33N 46°45' W 092°06'0 0.0
2015-Jun-20 15:33N 46°45' W 092°06'0 0.0
2015-Jun-20 14:33N 46°45' W 092°06'0 0.0
2015-Jun-20 13:34N 46°45' W 092°06'0 0.0
2015-Jun-20 12:33N 46°45' W 092°06'0 0.0
2015-Jun-20 11:33N 46°45' W 092°06'0 0.0
2015-Jun-20 10:33N 46°45' W 092°06'0 0.0
2015-Jun-20 09:33N 46°45' W 092°06'0 0.0
2015-Jun-20 08:33N 46°45' W 092°06'0 0.0
2015-Jun-20 07:33N 46°45' W 092°06'0 0.0
2015-Jun-20 06:33N 46°45' W 092°06'0 0.0
2015-Jun-20 05:33N 46°45' W 092°06'0 0.0
2015-Jun-20 04:34N 46°45' W 092°06'0 0.0
2015-Jun-20 03:31N 46°45' W 092°06'0 0.0
2015-Jun-20 02:34N 46°45' W 092°06'0 0.0
2015-Jun-20 01:34N 46°45' W 092°06'0 0.0
2015-Jun-20 00:34N 46°45' W 092°06'0 0.0
2015-Jun-19 23:15N 46°45' W 092°06'0 0.0
2015-Jun-19 22:33N 46°45' W 092°06'0 0.0
2015-Jun-19 21:33N 46°45' W 092°06'0 0.0
2015-Jun-19 20:33N 46°45' W 092°06'0 0.0
2015-Jun-19 19:33N 46°45' W 092°06'0 0.0
2015-Jun-19 18:33N 46°45' W 092°06'0 0.0
2015-Jun-19 17:33N 46°45' W 092°06'0 0.0
2015-Jun-19 16:33N 46°45' W 092°06'0 0.0
2015-Jun-19 15:33N 46°45' W 092°06'0 0.0
2015-Jun-19 14:33N 46°45' W 092°06'0 0.0
2015-Jun-19 13:33N 46°45' W 092°06'0 0.0
2015-Jun-19 12:33N 46°45' W 092°06'0 0.0
2015-Jun-19 11:33N 46°45' W 092°06'0 0.0
2015-Jun-19 10:33N 46°45' W 092°06'0 0.0
2015-Jun-19 09:33N 46°45' W 092°06'0 0.0
2015-Jun-19 08:33N 46°45' W 092°06'0 0.0
2015-Jun-19 07:33N 46°45' W 092°06'0 0.0
2015-Jun-19 06:33N 46°45' W 092°06'0 0.0
2015-Jun-19 05:33N 46°45' W 092°06'0 0.0
2015-Jun-19 04:33N 46°45' W 092°06'0 0.0
2015-Jun-19 03:32N 46°45' W 092°06'0 0.0
2015-Jun-19 02:33N 46°45' W 092°06'0 0.0
2015-Jun-19 01:33N 46°45' W 092°06'0 0.0
2015-Jun-19 00:33N 46°45' W 092°06'0 0.0
2015-Jun-18 23:33N 46°45' W 092°06'0 0.0
2015-Jun-18 22:33N 46°45' W 092°06'0 0.0
2015-Jun-18 21:33N 46°45' W 092°06'0 0.0
2015-Jun-18 20:33N 46°45' W 092°06'0 0.0
2015-Jun-18 19:33N 46°45' W 092°06'  

Dump ship's entire track history